Hauptseite
METAR-TAF:

METAR-TAF

Flughäfen :

Szeged, Ungarn

Breite: 46-15N, Länge: 020-06E, Höhe: 82 m

Beobachtung

Neuester Wetterbericht von vor 1 Stunde und 9 Minuten, um 02:45 UTC
Wind 5 kt aus Nord/Nordwest
Temperatur 18°C
Luftfeuchtigkeit 94%
Luftdruck 1016 hPa
Sichtweite 10 km oder mehr
keine Wolken unter 1500 m und keine Kumulonimbus oder Gewitterwolken

METAR: LHUD 160245Z 34005KT CAVOK 18/17 Q1016

Zeit: 05:54 (03:54 UTC)


TAF: fehlend

Wetterbeobachtungen und Prognosen von mehr als 4000 Flughäfen (METAR und TAF Bericht).

Die verfügbaren Stationen werden durch gelbe und rote Markierungen auf der Karte dargestellt.

Führen Sie die Maus auf sie, um den Namen der Station zu sehen.

Darauf klicken, um die Beobachtung von Wetterbeobachtungen und Prognosen zu sehen.

Um die Karte zu ändern : klicken Sie auf den grünen Tasten mit einem schwarzen Kreuz Zum Vergrößern, auf den grünen Button mit einem Gedankenstrich zu verkleinern, oder auf die grünen Pfeile für benachbarte Karten.


METAR-TAF: